Time;durP1;ratioP1;P1;durP2;ratioP2;P2;SDS_P1;SDS_P2;PMS_P1;PMS_P2;Temp;Humidity;BMP_temperature;BMP_pressure;BME280_temperature;BME280_humidity;BME280_pressure;Samples;Min_cycle;Max_cycle;Signal;HPM_P1;HPM_P2
2022/06/06 00:01:08;;;;;;;;;;;16.80;99.90;;;;;;4893416;29;19926;-57
2022/06/06 00:03:34;;;;;;;;;;;16.80;99.90;;;;;;4893938;29;19920;-58
2022/06/06 00:05:59;;;;;;;;;;;16.90;99.90;;;;;;4891533;29;19919;-59
2022/06/06 00:08:25;;;;;;;;;;;16.90;99.90;;;;;;4894019;29;19915;-58
2022/06/06 00:10:54;;;;;;;;;;;16.90;99.90;;;;;;4893860;29;19965;-58
2022/06/06 00:13:19;;;;;;;;;;;16.90;99.90;;;;;;4893892;29;20664;-57
2022/06/06 00:15:45;;;;;;;;;;;16.90;99.90;;;;;;4896339;29;19912;-57
2022/06/06 00:18:10;;;;;;;;;;;16.90;99.90;;;;;;4895895;29;19911;-57
2022/06/06 00:20:36;;;;;;;;;;;16.90;99.90;;;;;;4893932;29;19915;-57
2022/06/06 00:23:01;;;;;;;;;;;16.80;99.90;;;;;;4892981;29;19911;-57
2022/06/06 00:25:30;;;;;;;;;;;16.80;99.90;;;;;;4894914;29;19911;-58
2022/06/06 00:27:56;;;;;;;;;;;16.80;99.90;;;;;;4893429;29;19965;-58
2022/06/06 00:30:21;;;;;;;;;;;16.80;99.90;;;;;;4893374;29;19943;-58
2022/06/06 00:35:31;;;;;;;;;;;16.70;99.90;;;;;;4891592;29;19926;-58
2022/06/06 00:37:57;;;;;;;;;;;16.60;99.90;;;;;;4892834;29;19938;-57
2022/06/06 00:40:23;;;;;;;;;;;16.60;99.90;;;;;;4893305;29;19970;-57
2022/06/06 00:42:49;;;;;;;;;;;16.50;99.90;;;;;;4892526;29;19940;-57
2022/06/06 00:45:14;;;;;;;;;;;16.50;99.90;;;;;;4892566;29;19931;-58
2022/06/06 00:47:41;;;;;;;;;;;16.50;99.90;;;;;;4893766;29;19921;-58
2022/06/06 00:50:12;;;;;;;;;;;16.40;99.90;;;;;;4892498;29;20098;-58
2022/06/06 00:52:39;;;;;;;;;;;16.40;99.90;;;;;;4893063;29;19914;-58
2022/06/06 00:55:12;;;;;;;;;;;16.40;99.90;;;;;;4893596;29;20018;-58
2022/06/06 00:57:40;;;;;;;;;;;16.40;99.90;;;;;;4894946;29;20316;-59
2022/06/06 01:00:11;;;;;;;;;;;16.30;99.90;;;;;;4893660;29;20372;-58
2022/06/06 01:02:37;;;;;;;;;;;16.30;99.90;;;;;;4893032;29;20416;-58
2022/06/06 01:05:03;;;;;;;;;;;16.20;99.90;;;;;;4891147;29;19923;-58
2022/06/06 01:07:28;;;;;;;;;;;16.20;99.90;;;;;;4890289;29;19919;-58
2022/06/06 01:09:54;;;;;;;;;;;16.10;99.90;;;;;;4892513;29;19947;-58
2022/06/06 01:12:21;;;;;;;;;;;16.10;99.90;;;;;;4892753;29;19911;-57
2022/06/06 01:14:55;;;;;;;;;;;16.10;99.90;;;;;;4892602;29;19911;-59
2022/06/06 01:17:27;;;;;;;;;;;16.00;99.90;;;;;;4895328;29;19911;-58
2022/06/06 01:20:07;;;;;;;;;;;16.00;99.90;;;;;;4891373;29;19916;-58
2022/06/06 01:22:33;;;;;;;;;;;16.00;99.90;;;;;;4892811;29;19911;-57
2022/06/06 01:25:04;;;;;;;;;;;15.90;99.90;;;;;;4892187;29;20689;-58
2022/06/06 01:27:49;;;;;;;;;;;15.90;99.90;;;;;;4889596;29;19917;-57
2022/06/06 01:30:20;;;;;;;;;;;15.90;99.90;;;;;;4892080;29;19915;-58
2022/06/06 01:32:49;;;;;;;;;;;15.90;99.90;;;;;;4892474;29;20693;-58
2022/06/06 01:35:47;;;;;;;;;;;15.90;99.90;;;;;;4890489;29;20018;-58
2022/06/06 01:38:15;;;;;;;;;;;15.80;99.90;;;;;;4871967;29;19917;-57
2022/06/06 01:41:01;;;;;;;;;;;15.80;99.90;;;;;;4893685;29;19915;-57
2022/06/06 01:43:30;;;;;;;;;;;15.80;99.90;;;;;;4892280;29;19918;-57
2022/06/06 01:46:00;;;;;;;;;;;15.70;99.90;;;;;;4889245;29;19918;-58
2022/06/06 01:48:33;;;;;;;;;;;15.70;99.90;;;;;;4892213;29;19918;-58
2022/06/06 01:51:06;;;;;;;;;;;15.70;99.90;;;;;;4891334;29;19911;-57
2022/06/06 01:53:35;;;;;;;;;;;15.70;99.90;;;;;;4891915;29;20328;-57
2022/06/06 01:56:02;;;;;;;;;;;15.70;99.90;;;;;;4891705;29;19918;-58
2022/06/06 01:58:30;;;;;;;;;;;15.70;99.90;;;;;;4891868;29;19911;-57
2022/06/06 02:00:55;;;;;;;;;;;15.70;99.90;;;;;;4891568;29;19919;-57
2022/06/06 02:03:21;;;;;;;;;;;15.50;99.90;;;;;;4891852;29;19937;-58
2022/06/06 02:05:47;;;;;;;;;;;15.50;99.90;;;;;;4889890;29;20410;-58
2022/06/06 02:08:14;;;;;;;;;;;15.40;99.90;;;;;;4891090;29;19963;-58
2022/06/06 02:10:39;;;;;;;;;;;15.40;99.90;;;;;;4891921;29;20288;-58
2022/06/06 02:13:05;;;;;;;;;;;15.40;99.90;;;;;;4890798;29;19922;-58
2022/06/06 02:15:31;;;;;;;;;;;15.30;99.90;;;;;;4891704;29;19911;-58
2022/06/06 02:17:57;;;;;;;;;;;15.30;99.90;;;;;;4894038;29;20315;-58
2022/06/06 02:20:24;;;;;;;;;;;15.30;99.90;;;;;;4894133;29;19916;-57
2022/06/06 02:22:49;;;;;;;;;;;15.20;99.90;;;;;;4891500;29;20002;-57
2022/06/06 02:25:15;;;;;;;;;;;15.20;99.90;;;;;;4890870;29;20011;-59
2022/06/06 02:27:41;;;;;;;;;;;15.20;99.90;;;;;;4893122;29;20384;-58
2022/06/06 02:30:09;;;;;;;;;;;15.10;99.90;;;;;;4890709;29;19911;-57
2022/06/06 02:32:34;;;;;;;;;;;15.10;99.90;;;;;;4891650;29;19911;-58
2022/06/06 02:35:00;;;;;;;;;;;15.00;99.90;;;;;;4889034;29;19922;-58
2022/06/06 02:37:26;;;;;;;;;;;15.00;99.90;;;;;;4891428;29;20009;-58
2022/06/06 02:39:51;;;;;;;;;;;14.90;99.90;;;;;;4891231;29;19915;-58
2022/06/06 02:42:17;;;;;;;;;;;14.80;99.90;;;;;;4890778;29;19911;-58
2022/06/06 02:44:42;;;;;;;;;;;14.80;99.90;;;;;;4891594;29;19918;-57
2022/06/06 02:47:08;;;;;;;;;;;14.80;99.90;;;;;;4886967;29;19915;-58
2022/06/06 02:49:33;;;;;;;;;;;14.80;99.90;;;;;;4891495;29;19911;-58
2022/06/06 02:52:03;;;;;;;;;;;14.80;99.90;;;;;;4890685;29;20001;-58
2022/06/06 02:54:29;;;;;;;;;;;14.70;99.90;;;;;;4891118;29;19956;-58
2022/06/06 02:56:55;;;;;;;;;;;14.70;99.90;;;;;;4892228;29;20150;-58
2022/06/06 02:59:22;;;;;;;;;;;14.70;99.90;;;;;;4893533;29;19911;-58
2022/06/06 03:01:48;;;;;;;;;;;14.60;99.90;;;;;;4891221;29;20394;-57
2022/06/06 03:04:13;;;;;;;;;;;14.60;99.90;;;;;;4889014;29;19927;-57
2022/06/06 03:06:48;;;;;;;;;;;14.70;99.90;;;;;;4897409;29;19958;-58
2022/06/06 03:09:19;;;;;;;;;;;14.60;99.90;;;;;;4897562;29;19946;-58
2022/06/06 03:11:48;;;;;;;;;;;14.60;99.90;;;;;;4897203;29;19922;-58
2022/06/06 03:14:13;;;;;;;;;;;14.60;99.90;;;;;;4893009;29;19975;-57
2022/06/06 03:22:32;;;;;;;;;;;14.60;99.90;;;;;;4893191;29;19918;-58
2022/06/06 03:25:05;;;;;;;;;;;14.60;99.90;;;;;;4896813;29;19912;-58
2022/06/06 03:27:33;;;;;;;;;;;14.70;99.90;;;;;;4890125;29;19922;-59
2022/06/06 03:30:05;;;;;;;;;;;14.70;99.90;;;;;;4896191;29;19963;-58
2022/06/06 03:32:33;;;;;;;;;;;14.60;99.90;;;;;;4897037;29;20419;-58
2022/06/06 03:35:07;;;;;;;;;;;14.70;99.90;;;;;;4894602;29;19922;-58
2022/06/06 03:37:56;;;;;;;;;;;14.70;99.90;;;;;;4895100;29;20430;-58
2022/06/06 03:40:21;;;;;;;;;;;14.70;99.90;;;;;;4895592;29;19918;-58
2022/06/06 03:43:02;;;;;;;;;;;14.80;99.90;;;;;;4898305;29;20305;-58
2022/06/06 03:45:38;;;;;;;;;;;14.70;99.90;;;;;;4896850;29;19911;-58
2022/06/06 03:48:17;;;;;;;;;;;14.80;99.90;;;;;;4897742;29;19911;-58
2022/06/06 03:50:51;;;;;;;;;;;14.80;99.90;;;;;;4896778;29;20277;-58
2022/06/06 03:53:21;;;;;;;;;;;14.80;99.90;;;;;;4896173;29;19915;-58
2022/06/06 03:55:53;;;;;;;;;;;14.80;99.90;;;;;;4896970;29;19911;-58
2022/06/06 03:58:21;;;;;;;;;;;14.80;99.90;;;;;;4877518;29;20487;-57
2022/06/06 04:00:47;;;;;;;;;;;14.90;99.90;;;;;;4896398;29;19915;-58
2022/06/06 04:03:14;;;;;;;;;;;14.80;99.90;;;;;;4895631;29;19907;-58
2022/06/06 04:05:39;;;;;;;;;;;14.80;99.90;;;;;;4892947;29;19927;-57
2022/06/06 04:08:06;;;;;;;;;;;14.90;99.90;;;;;;4895361;29;19970;-58
2022/06/06 04:10:43;;;;;;;;;;;14.80;99.90;;;;;;4895934;29;19927;-58
2022/06/06 04:13:32;;;;;;;;;;;14.80;99.90;;;;;;4892988;29;19911;-59
2022/06/06 04:16:12;;;;;;;;;;;14.80;99.90;;;;;;4887592;29;19911;-58
2022/06/06 04:18:41;;;;;;;;;;;14.80;99.90;;;;;;4894966;29;19911;-59
2022/06/06 04:21:25;;;;;;;;;;;14.80;99.90;;;;;;4891796;29;19982;-58
2022/06/06 04:23:50;;;;;;;;;;;14.80;99.90;;;;;;4894584;29;20279;-58
2022/06/06 04:26:33;;;;;;;;;;;14.90;99.90;;;;;;4893078;29;19911;-59
2022/06/06 04:29:05;;;;;;;;;;;14.90;99.90;;;;;;4894922;29;19939;-58
2022/06/06 04:31:33;;;;;;;;;;;15.00;99.90;;;;;;4893235;29;19911;-59
2022/06/06 04:34:19;;;;;;;;;;;15.00;99.90;;;;;;4891594;29;20003;-58
2022/06/06 04:37:01;;;;;;;;;;;14.90;99.90;;;;;;4893156;29;20004;-59
2022/06/06 04:39:30;;;;;;;;;;;15.00;99.90;;;;;;4893399;29;20465;-59
2022/06/06 04:42:03;;;;;;;;;;;15.00;99.90;;;;;;4893191;29;19915;-59
2022/06/06 04:44:31;;;;;;;;;;;15.00;99.90;;;;;;4893466;29;19911;-58
2022/06/06 04:47:08;;;;;;;;;;;15.00;99.90;;;;;;4893158;29;19911;-58
2022/06/06 04:49:34;;;;;;;;;;;15.10;99.90;;;;;;4893406;29;20328;-59
2022/06/06 04:52:01;;;;;;;;;;;15.10;99.90;;;;;;4892989;29;19918;-59
2022/06/06 04:54:28;;;;;;;;;;;15.10;99.90;;;;;;4892979;29;19912;-58
2022/06/06 04:56:54;;;;;;;;;;;15.10;99.90;;;;;;4893172;29;20279;-59
2022/06/06 04:59:21;;;;;;;;;;;15.10;99.90;;;;;;4894132;29;19931;-59
2022/06/06 05:01:47;;;;;;;;;;;15.20;99.90;;;;;;4895264;29;19911;-58
2022/06/06 05:04:12;;;;;;;;;;;15.10;99.90;;;;;;4891664;29;20485;-58
2022/06/06 05:06:38;;;;;;;;;;;15.10;99.90;;;;;;4891691;29;19975;-58
2022/06/06 05:09:22;;;;;;;;;;;15.20;99.90;;;;;;4893404;29;20002;-58
2022/06/06 05:11:47;;;;;;;;;;;15.20;99.90;;;;;;4893042;29;19994;-58
2022/06/06 05:14:31;;;;;;;;;;;15.30;99.90;;;;;;4892008;29;19964;-59
2022/06/06 05:17:05;;;;;;;;;;;15.50;99.90;;;;;;4895180;29;19911;-58
2022/06/06 05:19:38;;;;;;;;;;;15.60;99.90;;;;;;4889353;29;19915;-59
2022/06/06 05:22:03;;;;;;;;;;;15.70;99.90;;;;;;4891833;29;19986;-58
2022/06/06 05:24:49;;;;;;;;;;;15.60;99.90;;;;;;4892507;29;19938;-58
2022/06/06 05:27:14;;;;;;;;;;;15.60;99.90;;;;;;4889693;29;19911;-58
2022/06/06 05:29:47;;;;;;;;;;;15.60;99.90;;;;;;4892027;29;19919;-59
2022/06/06 05:32:18;;;;;;;;;;;15.50;99.90;;;;;;4891750;29;19919;-58
2022/06/06 05:34:47;;;;;;;;;;;15.50;99.90;;;;;;4887569;29;20030;-58
2022/06/06 05:37:19;;;;;;;;;;;15.50;99.90;;;;;;4891696;29;19911;-59
2022/06/06 05:40:02;;;;;;;;;;;15.60;99.90;;;;;;4893269;29;20009;-58
2022/06/06 05:42:46;;;;;;;;;;;15.70;99.90;;;;;;4892141;29;19955;-58
2022/06/06 05:45:30;;;;;;;;;;;15.70;99.90;;;;;;4890791;29;19979;-58
2022/06/06 05:48:15;;;;;;;;;;;15.60;99.90;;;;;;4891741;29;19923;-59
2022/06/06 05:50:52;;;;;;;;;;;15.70;99.90;;;;;;4893626;29;19911;-58
2022/06/06 05:53:36;;;;;;;;;;;15.70;99.90;;;;;;4888777;29;19975;-58
2022/06/06 05:56:12;;;;;;;;;;;15.60;99.90;;;;;;4888554;29;19921;-59
2022/06/06 05:58:37;;;;;;;;;;;15.60;99.90;;;;;;4891937;29;19911;-58
2022/06/06 06:01:03;;;;;;;;;;;15.80;99.90;;;;;;4891853;29;19922;-58
2022/06/06 06:03:28;;;;;;;;;;;16.00;99.90;;;;;;4891458;29;19911;-58
2022/06/06 06:05:57;;;;;;;;;;;16.10;99.90;;;;;;4890054;29;20018;-59
2022/06/06 06:08:36;;;;;;;;;;;16.00;99.90;;;;;;4887905;29;19919;-58
2022/06/06 06:11:01;;;;;;;;;;;15.90;99.90;;;;;;4891599;29;19915;-58
2022/06/06 06:13:27;;;;;;;;;;;16.00;99.90;;;;;;4891369;29;19912;-58
2022/06/06 06:15:53;;;;;;;;;;;16.00;99.90;;;;;;4891734;29;20002;-58
2022/06/06 06:18:24;;;;;;;;;;;16.10;99.90;;;;;;4892835;29;20419;-58
2022/06/06 06:21:19;;;;;;;;;;;16.40;99.90;;;;;;4893144;29;20050;-58
2022/06/06 06:23:58;;;;;;;;;;;16.60;99.90;;;;;;4893720;29;20325;-58
2022/06/06 06:26:24;;;;;;;;;;;16.40;99.90;;;;;;4888671;29;20010;-58
2022/06/06 06:28:50;;;;;;;;;;;16.20;99.90;;;;;;4891602;29;20006;-58
2022/06/06 06:31:19;;;;;;;;;;;16.10;99.90;;;;;;4892203;29;20393;-58
2022/06/06 06:33:55;;;;;;;;;;;16.00;99.90;;;;;;4891263;29;19926;-59
2022/06/06 06:36:32;;;;;;;;;;;16.00;99.90;;;;;;4885504;29;20534;-58
2022/06/06 06:39:16;;;;;;;;;;;16.10;99.90;;;;;;4891232;29;20479;-58
2022/06/06 06:42:01;;;;;;;;;;;16.20;99.90;;;;;;4888586;29;20312;-58
2022/06/06 06:44:29;;;;;;;;;;;16.20;99.90;;;;;;4887311;29;19918;-58
2022/06/06 06:47:02;;;;;;;;;;;16.50;99.90;;;;;;4891033;29;20375;-58
2022/06/06 06:49:30;;;;;;;;;;;16.70;99.90;;;;;;4890678;29;19998;-59
2022/06/06 06:52:05;;;;;;;;;;;16.90;99.90;;;;;;4890907;29;20388;-58
2022/06/06 06:54:50;;;;;;;;;;;16.90;99.90;;;;;;4888008;29;20390;-58
2022/06/06 06:57:19;;;;;;;;;;;16.80;99.90;;;;;;4890065;29;20010;-58
2022/06/06 06:59:56;;;;;;;;;;;16.60;99.90;;;;;;4891026;29;19920;-58
2022/06/06 07:11:01;;;;;;;;;;;17.10;99.90;;;;;;4892181;29;19958;-58
2022/06/06 07:13:33;;;;;;;;;;;17.20;99.90;;;;;;4891603;29;20434;-58
2022/06/06 07:16:05;;;;;;;;;;;17.20;99.90;;;;;;4891358;29;19946;-58
2022/06/06 07:18:33;;;;;;;;;;;17.20;99.90;;;;;;4890607;29;19911;-58
2022/06/06 07:20:59;;;;;;;;;;;17.10;99.90;;;;;;4888026;29;19923;-58
2022/06/06 07:23:29;;;;;;;;;;;17.00;99.90;;;;;;4890486;29;19923;-58
2022/06/06 07:25:56;;;;;;;;;;;16.80;99.90;;;;;;4890872;29;19978;-58
2022/06/06 07:28:22;;;;;;;;;;;16.90;99.90;;;;;;4890299;29;19919;-58
2022/06/06 07:30:48;;;;;;;;;;;17.20;99.90;;;;;;4890914;29;20386;-58
2022/06/06 07:33:20;;;;;;;;;;;17.60;99.90;;;;;;4890351;29;19911;-58
2022/06/06 07:35:45;;;;;;;;;;;17.70;99.90;;;;;;4886193;29;20447;-58
2022/06/06 07:38:12;;;;;;;;;;;18.00;99.90;;;;;;4890303;29;19911;-59
2022/06/06 07:40:38;;;;;;;;;;;18.20;99.90;;;;;;4890751;29;19922;-59
2022/06/06 07:43:06;;;;;;;;;;;18.00;99.90;;;;;;4892996;29;20689;-58
2022/06/06 07:45:43;;;;;;;;;;;17.70;99.90;;;;;;4892867;29;19908;-58
2022/06/06 07:48:35;;;;;;;;;;;17.40;99.90;;;;;;4887801;29;20002;-58
2022/06/06 07:51:07;;;;;;;;;;;17.40;99.90;;;;;;4887867;29;19911;-58
2022/06/06 07:53:32;;;;;;;;;;;17.60;99.90;;;;;;4894408;29;19912;-59
2022/06/06 07:56:09;;;;;;;;;;;17.60;99.90;;;;;;4894245;29;19911;-58
2022/06/06 07:58:44;;;;;;;;;;;17.60;99.90;;;;;;4893604;29;20021;-59
2022/06/06 08:01:13;;;;;;;;;;;17.70;99.90;;;;;;4893924;29;19915;-58
2022/06/06 08:03:48;;;;;;;;;;;17.60;99.90;;;;;;4893757;29;19958;-58
2022/06/06 08:06:20;;;;;;;;;;;17.80;99.90;;;;;;4891324;29;19919;-58
2022/06/06 08:09:02;;;;;;;;;;;17.90;99.90;;;;;;4893690;29;19920;-58
2022/06/06 08:11:52;;;;;;;;;;;18.40;99.90;;;;;;4890501;29;20368;-58
2022/06/06 08:14:28;;;;;;;;;;;18.50;99.90;;;;;;4891099;29;19912;-58
2022/06/06 08:17:00;;;;;;;;;;;19.00;99.90;;;;;;4895770;29;19974;-58
2022/06/06 08:19:40;;;;;;;;;;;19.00;99.90;;;;;;4890346;29;20538;-58
2022/06/06 08:22:08;;;;;;;;;;;19.40;99.90;;;;;;4894256;29;19918;-58
2022/06/06 08:24:36;;;;;;;;;;;19.40;99.90;;;;;;4892425;29;19912;-58
2022/06/06 08:27:04;;;;;;;;;;;19.50;99.90;;;;;;4895503;29;19915;-58
2022/06/06 08:29:30;;;;;;;;;;;19.70;99.90;;;;;;4892928;29;19963;-58
2022/06/06 08:31:55;;;;;;;;;;;19.90;99.90;;;;;;4893808;29;20300;-58
2022/06/06 08:34:21;;;;;;;;;;;20.20;99.90;;;;;;4888799;29;19927;-58
2022/06/06 08:36:46;;;;;;;;;;;20.70;99.90;;;;;;4893477;29;20295;-59
2022/06/06 08:39:30;;;;;;;;;;;21.20;99.90;;;;;;4892702;29;19961;-58
2022/06/06 08:42:08;;;;;;;;;;;21.40;99.50;;;;;;4892637;29;19921;-58
2022/06/06 08:44:33;;;;;;;;;;;20.90;98.70;;;;;;4893012;29;20002;-59
2022/06/06 08:47:24;;;;;;;;;;;21.00;99.90;;;;;;4893442;29;20018;-59
2022/06/06 08:53:08;;;;;;;;;;;22.00;97.20;;;;;;4892850;29;19926;-58
2022/06/06 08:55:52;;;;;;;;;;;21.00;99.00;;;;;;4890580;29;20399;-59
2022/06/06 08:58:26;;;;;;;;;;;21.20;98.70;;;;;;4892599;29;19915;-58
2022/06/06 09:01:03;;;;;;;;;;;21.40;98.20;;;;;;4892943;29;19915;-58
2022/06/06 09:03:41;;;;;;;;;;;21.70;97.30;;;;;;4889622;29;20331;-58
2022/06/06 09:06:25;;;;;;;;;;;21.20;97.90;;;;;;4893437;29;20458;-58
2022/06/06 09:09:01;;;;;;;;;;;21.70;98.30;;;;;;4891088;29;20002;-58
2022/06/06 09:11:40;;;;;;;;;;;22.40;96.10;;;;;;4892428;29;19915;-58
2022/06/06 09:14:24;;;;;;;;;;;21.60;96.50;;;;;;4891995;29;19923;-58
2022/06/06 09:16:57;;;;;;;;;;;21.10;96.50;;;;;;4893610;29;20447;-58
2022/06/06 09:19:28;;;;;;;;;;;21.20;96.50;;;;;;4891809;29;19911;-58
2022/06/06 09:22:00;;;;;;;;;;;21.80;95.30;;;;;;4892521;29;20342;-58
2022/06/06 09:24:45;;;;;;;;;;;21.50;95.80;;;;;;4889064;29;19921;-58
2022/06/06 09:27:29;;;;;;;;;;;21.80;96.70;;;;;;4892695;29;19993;-58
2022/06/06 09:30:10;;;;;;;;;;;21.60;95.80;;;;;;4892460;29;19911;-58
2022/06/06 09:32:42;;;;;;;;;;;22.00;96.40;;;;;;4889978;29;20026;-58
2022/06/06 09:35:40;;;;;;;;;;;21.40;94.50;;;;;;4890737;29;19982;-58
2022/06/06 09:38:14;;;;;;;;;;;20.80;95.70;;;;;;4866449;29;19916;-58
2022/06/06 09:40:58;;;;;;;;;;;20.70;95.30;;;;;;4892329;29;19923;-58
2022/06/06 09:43:31;;;;;;;;;;;20.80;96.00;;;;;;4889467;29;19994;-58
2022/06/06 09:46:00;;;;;;;;;;;20.60;96.50;;;;;;4894615;29;19907;-59
2022/06/06 09:48:31;;;;;;;;;;;20.90;95.80;;;;;;4893290;29;20511;-58
2022/06/06 09:50:56;;;;;;;;;;;20.80;96.40;;;;;;4888443;29;19911;-58
2022/06/06 09:53:41;;;;;;;;;;;20.90;95.80;;;;;;4892201;29;19915;-59
2022/06/06 09:59:02;;;;;;;;;;;21.50;95.50;;;;;;4892321;29;19919;-58
2022/06/06 10:02:05;;;;;;;;;;;22.20;94.20;;;;;;4886995;29;19923;-59
2022/06/06 10:04:49;;;;;;;;;;;22.40;93.80;;;;;;4825581;29;20349;-59
2022/06/06 10:07:29;;;;;;;;;;;21.60;93.90;;;;;;4885046;29;20026;-59
2022/06/06 10:10:24;;;;;;;;;;;21.00;95.40;;;;;;4891778;29;19915;-58
2022/06/06 10:12:59;;;;;;;;;;;20.60;95.40;;;;;;4841615;29;19912;-58
2022/06/06 10:15:33;;;;;;;;;;;20.20;95.90;;;;;;4890427;29;20066;-58
2022/06/06 10:17:59;;;;;;;;;;;20.70;96.00;;;;;;4892198;29;19918;-58
2022/06/06 10:20:27;;;;;;;;;;;21.90;94.50;;;;;;4891137;29;20273;-58
2022/06/06 10:23:06;;;;;;;;;;;22.80;94.20;;;;;;4891387;29;19923;-58
2022/06/06 10:25:32;;;;;;;;;;;23.00;92.80;;;;;;4893334;29;19907;-59
2022/06/06 10:28:14;;;;;;;;;;;21.30;95.10;;;;;;4894198;29;19908;-58
2022/06/06 10:30:59;;;;;;;;;;;20.40;97.50;;;;;;4890982;29;19911;-58
2022/06/06 10:33:43;;;;;;;;;;;20.00;99.20;;;;;;4890131;29;19963;-58
2022/06/06 10:36:18;;;;;;;;;;;19.20;99.90;;;;;;4887904;29;19997;-59
2022/06/06 10:38:44;;;;;;;;;;;19.70;99.90;;;;;;4891085;29;19907;-59
2022/06/06 10:41:15;;;;;;;;;;;20.60;99.90;;;;;;4891030;29;20562;-58
2022/06/06 10:43:44;;;;;;;;;;;22.20;98.00;;;;;;4890143;29;19918;-59
2022/06/06 10:46:18;;;;;;;;;;;22.60;96.70;;;;;;4891436;29;19911;-59
2022/06/06 10:49:09;;;;;;;;;;;23.70;96.20;;;;;;4891230;29;20312;-58
2022/06/06 10:51:55;;;;;;;;;;;22.70;94.80;;;;;;4889883;29;20766;-58
2022/06/06 10:54:26;;;;;;;;;;;22.70;95.10;;;;;;4889608;29;19915;-58
2022/06/06 10:57:10;;;;;;;;;;;23.20;93.20;;;;;;4891015;29;19967;-59
2022/06/06 11:00:03;;;;;;;;;;;23.70;91.90;;;;;;4890494;29;20295;-58
2022/06/06 11:02:47;;;;;;;;;;;23.00;92.40;;;;;;4876646;29;20639;-58
2022/06/06 11:05:13;;;;;;;;;;;22.00;92.90;;;;;;4887487;29;19931;-58
2022/06/06 11:07:57;;;;;;;;;;;22.60;93.40;;;;;;4896576;29;19915;-58
2022/06/06 11:10:23;;;;;;;;;;;23.50;91.70;;;;;;4889373;29;19912;-58
2022/06/06 11:13:11;;;;;;;;;;;24.00;90.80;;;;;;4890990;29;20294;-58
2022/06/06 11:15:56;;;;;;;;;;;25.00;90.20;;;;;;4891785;29;19927;-58
2022/06/06 11:18:36;;;;;;;;;;;25.70;88.60;;;;;;4884213;29;19911;-59
2022/06/06 11:21:14;;;;;;;;;;;25.40;88.70;;;;;;4890836;29;19938;-58
2022/06/06 11:23:46;;;;;;;;;;;25.70;86.00;;;;;;4889409;29;19911;-59
2022/06/06 11:26:23;;;;;;;;;;;24.80;86.80;;;;;;4892345;29;19919;-59
2022/06/06 11:28:51;;;;;;;;;;;25.90;84.10;;;;;;4894220;29;20368;-58
2022/06/06 11:31:17;;;;;;;;;;;25.50;81.90;;;;;;4894840;29;20431;-58
2022/06/06 11:33:42;;;;;;;;;;;23.70;86.20;;;;;;4894121;29;19923;-58
2022/06/06 11:36:26;;;;;;;;;;;23.60;87.70;;;;;;4892773;29;19915;-59
2022/06/06 11:38:52;;;;;;;;;;;25.10;86.50;;;;;;4892675;29;19992;-58
2022/06/06 11:41:28;;;;;;;;;;;25.80;83.30;;;;;;4894400;29;20013;-59
2022/06/06 11:43:54;;;;;;;;;;;26.10;83.50;;;;;;4891017;29;19911;-59
2022/06/06 11:46:34;;;;;;;;;;;25.10;83.50;;;;;;4896039;29;20387;-59
2022/06/06 11:49:15;;;;;;;;;;;25.50;83.10;;;;;;4896169;29;19907;-58
2022/06/06 11:51:46;;;;;;;;;;;25.40;80.50;;;;;;4892367;29;20010;-58
2022/06/06 11:54:28;;;;;;;;;;;22.90;82.70;;;;;;4894238;29;19926;-58
2022/06/06 11:57:05;;;;;;;;;;;23.00;84.10;;;;;;4893427;29;19911;-58
2022/06/06 11:59:50;;;;;;;;;;;23.10;84.40;;;;;;4893425;29;19947;-58
2022/06/06 12:02:34;;;;;;;;;;;22.70;83.10;;;;;;4894127;29;20442;-58
2022/06/06 12:05:22;;;;;;;;;;;22.20;83.50;;;;;;4892243;29;19931;-58
2022/06/06 12:07:48;;;;;;;;;;;22.10;87.40;;;;;;4866405;29;19934;-58
2022/06/06 12:10:23;;;;;;;;;;;23.80;83.10;;;;;;4893815;29;19911;-58
2022/06/06 12:12:48;;;;;;;;;;;24.10;82.10;;;;;;4893681;29;19911;-59
2022/06/06 12:15:42;;;;;;;;;;;24.90;83.60;;;;;;4893848;29;19959;-58
2022/06/06 12:18:30;;;;;;;;;;;24.60;80.70;;;;;;4895400;29;19918;-58
2022/06/06 12:21:22;;;;;;;;;;;22.90;86.40;;;;;;4890263;29;19930;-58
2022/06/06 12:24:14;;;;;;;;;;;21.70;88.90;;;;;;4894077;29;20295;-58
2022/06/06 12:26:55;;;;;;;;;;;21.00;91.30;;;;;;4890677;29;19982;-58
2022/06/06 12:29:35;;;;;;;;;;;20.70;92.30;;;;;;4896541;29;20423;-57
2022/06/06 12:32:00;;;;;;;;;;;20.00;92.20;;;;;;4894143;29;19915;-58
2022/06/06 12:34:30;;;;;;;;;;;19.60;93.70;;;;;;4891414;29;19926;-59
2022/06/06 12:36:58;;;;;;;;;;;19.40;94.20;;;;;;4894150;29;19911;-58
2022/06/06 12:39:30;;;;;;;;;;;18.80;98.70;;;;;;4872299;29;19959;-58
2022/06/06 12:42:08;;;;;;;;;;;17.80;99.90;;;;;;4893397;29;19912;-58
2022/06/06 12:44:52;;;;;;;;;;;17.00;99.90;;;;;;4892950;29;19911;-59
2022/06/06 12:47:28;;;;;;;;;;;19.60;99.90;;;;;;4893316;29;19911;-59
2022/06/06 12:50:12;;;;;;;;;;;19.50;99.90;;;;;;4890426;29;19911;-59
2022/06/06 12:52:44;;;;;;;;;;;21.30;99.90;;;;;;4892498;29;19919;-59
2022/06/06 12:55:34;;;;;;;;;;;22.80;99.90;;;;;;4890348;29;20048;-58
2022/06/06 12:58:08;;;;;;;;;;;24.00;99.90;;;;;;4886491;29;19938;-59
2022/06/06 13:03:39;;;;;;;;;;;24.10;99.90;;;;;;4891513;29;19943;-59
2022/06/06 13:06:28;;;;;;;;;;;23.50;99.90;;;;;;4891229;29;20007;-58
2022/06/06 13:09:20;;;;;;;;;;;23.70;99.90;;;;;;4887174;29;19950;-59
2022/06/06 13:11:45;;;;;;;;;;;24.40;99.90;;;;;;4891724;29;19923;-58
2022/06/06 13:14:17;;;;;;;;;;;25.40;97.50;;;;;;4893040;29;19915;-59
2022/06/06 13:16:42;;;;;;;;;;;26.00;95.80;;;;;;4893546;29;19998;-59
2022/06/06 13:19:27;;;;;;;;;;;24.80;90.80;;;;;;4898156;29;19946;-58
2022/06/06 13:22:05;;;;;;;;;;;25.20;92.10;;;;;;4892596;29;19923;-58
2022/06/06 13:24:31;;;;;;;;;;;24.50;93.90;;;;;;4888711;29;19915;-59
2022/06/06 13:27:26;;;;;;;;;;;24.80;91.40;;;;;;4892495;29;19919;-59
2022/06/06 13:29:51;;;;;;;;;;;24.60;91.60;;;;;;4880044;29;20380;-59
2022/06/06 13:32:20;;;;;;;;;;;25.10;93.10;;;;;;4892547;29;19990;-59
2022/06/06 13:35:01;;;;;;;;;;;25.00;91.20;;;;;;4890317;29;20408;-59
2022/06/06 13:37:45;;;;;;;;;;;25.00;91.30;;;;;;4890574;29;19923;-58
2022/06/06 13:40:23;;;;;;;;;;;24.00;92.70;;;;;;4888939;29;19979;-59
2022/06/06 13:42:55;;;;;;;;;;;24.40;92.70;;;;;;4891568;29;19911;-58
2022/06/06 13:45:27;;;;;;;;;;;24.10;93.20;;;;;;4892153;29;19948;-58
2022/06/06 13:48:11;;;;;;;;;;;23.60;90.90;;;;;;4893384;29;19914;-58
2022/06/06 13:50:55;;;;;;;;;;;24.00;92.00;;;;;;4890524;29;20547;-59
2022/06/06 13:53:42;;;;;;;;;;;24.20;91.40;;;;;;4892801;29;19971;-58
2022/06/06 13:56:10;;;;;;;;;;;23.90;89.60;;;;;;4891001;29;19959;-59
2022/06/06 13:58:39;;;;;;;;;;;25.10;90.00;;;;;;4892703;29;19916;-59
2022/06/06 14:01:26;;;;;;;;;;;26.80;84.70;;;;;;4891832;29;19915;-58
2022/06/06 14:03:59;;;;;;;;;;;26.30;81.70;;;;;;4887588;29;19923;-58
2022/06/06 14:06:43;;;;;;;;;;;26.80;79.30;;;;;;4890314;29;19918;-59
2022/06/06 14:09:15;;;;;;;;;;;27.00;77.50;;;;;;4888596;29;20051;-59
2022/06/06 14:11:40;;;;;;;;;;;27.70;73.80;;;;;;4891278;29;19990;-58
2022/06/06 14:14:07;;;;;;;;;;;27.30;72.00;;;;;;4891743;29;20371;-58
2022/06/06 14:16:35;;;;;;;;;;;27.20;71.30;;;;;;4891165;29;19912;-59
2022/06/06 14:19:19;;;;;;;;;;;26.40;72.10;;;;;;4891521;29;19912;-58
2022/06/06 14:21:47;;;;;;;;;;;26.30;72.50;;;;;;4890951;29;19926;-58
2022/06/06 14:24:18;;;;;;;;;;;26.50;74.40;;;;;;4891474;29;20360;-58
2022/06/06 14:26:49;;;;;;;;;;;26.60;72.90;;;;;;4890784;29;20473;-58
2022/06/06 14:29:23;;;;;;;;;;;26.40;72.70;;;;;;4893720;29;19911;-59
2022/06/06 14:31:54;;;;;;;;;;;27.40;70.70;;;;;;4893389;29;19915;-59
2022/06/06 14:34:40;;;;;;;;;;;27.30;69.60;;;;;;4886933;29;20678;-58
2022/06/06 14:37:15;;;;;;;;;;;28.50;70.60;;;;;;4890796;29;19974;-58
2022/06/06 14:39:46;;;;;;;;;;;26.70;68.60;;;;;;4892072;29;19911;-58
2022/06/06 14:42:12;;;;;;;;;;;26.70;69.80;;;;;;4891370;29;19918;-59
2022/06/06 14:44:40;;;;;;;;;;;26.60;70.90;;;;;;4890978;29;20655;-58
2022/06/06 14:47:17;;;;;;;;;;;25.10;71.00;;;;;;4888110;29;19977;-58
2022/06/06 14:50:45;;;;;;;;;;;26.00;72.60;;;;;;4890743;29;19908;-58
2022/06/06 14:52:33;;;;;;;;;;;25.50;71.60;;;;;;4888566;29;19911;-59
2022/06/06 14:54:59;;;;;;;;;;;25.90;70.40;;;;;;4891086;29;19911;-58
2022/06/06 14:57:30;;;;;;;;;;;26.30;69.40;;;;;;4890932;29;20129;-59
2022/06/06 14:59:58;;;;;;;;;;;27.90;69.30;;;;;;4886276;29;19916;-58
2022/06/06 15:02:28;;;;;;;;;;;26.90;66.50;;;;;;4890369;29;19938;-58
2022/06/06 15:05:09;;;;;;;;;;;28.10;66.30;;;;;;4888315;29;20348;-59
2022/06/06 15:07:45;;;;;;;;;;;27.40;64.60;;;;;;4887814;29;20642;-58
2022/06/06 15:10:19;;;;;;;;;;;26.30;64.70;;;;;;4893391;29;19959;-58
2022/06/06 15:12:44;;;;;;;;;;;26.40;65.60;;;;;;4889693;29;19907;-59
2022/06/06 15:15:11;;;;;;;;;;;27.00;66.10;;;;;;4890896;29;19911;-57
2022/06/06 15:17:39;;;;;;;;;;;26.50;66.40;;;;;;4892269;29;19918;-58